^^
Station Historical Data
 
Daily Summary for July 30, 2016 Units:  English    Metric   Both
« Previous Day
Next Day »
Daily Weekly Monthly Yearly Custom
  Current: High: Low: Average:
Temperature: 68.4 °F 68.4 °F 59.0 °F 63 °F
Dew Point: 61.6 °F 62.6 °F 56.1 °F 58.8 °F
Humidity: 79% 92% 78% 86%
Wind Speed: 0.0mph 8.1mph 0.0mph 1mph
Wind Gust: 0.0mph 8.1mph - -
WindCalm - - ESE
Pressure: 29.67 in 29.77 in 29.61 in -
Precipitation: 0.00 in      
Historical Graphs
 
 
Tabular Data for July 30, 2016
Time Temperature Dew Point Pressure Wind Wind Speed Wind Gust Humidity Rainfall Rate (Hourly) solar Conditions
00:00 66.3 °F 59.2 °F 29.73 in East 2.3 mph 2.3 mph 78% 0.00 in WeatherDisplay:10.37 W/m2 CLR
00:05 66.3 °F 59.2 °F 29.72 in East 2.3 mph   78% 0.00 in WeatherDisplay:10.37 W/m2 CLR
00:10 66.3 °F 59.6 °F 29.71 in East 2.3 mph 2.3 mph 79% 0.00 in WeatherDisplay:10.37 W/m2 CLR
00:15 66.3 °F 59.6 °F 29.70 in East 3.5 mph 3.5 mph 79% 0.00 in WeatherDisplay:10.37 W/m2 CLR
00:20 66.3 °F 59.6 °F 29.70 in East 4.6 mph 4.6 mph 79% 0.00 in WeatherDisplay:10.37 W/m2 CLR
00:25 66.1 °F 59.7 °F 29.71 in East 2.3 mph 2.3 mph 80% 0.00 in WeatherDisplay:10.37 W/m2 CLR
00:30 66.1 °F 59.7 °F 29.70 in Calm     80% 0.00 in WeatherDisplay:10.37 W/m2 CLR
00:35 66.0 °F 59.7 °F 29.70 in Calm     80% 0.00 in WeatherDisplay:10.37 W/m2 CLR
00:40 65.8 °F 59.5 °F 29.70 in Calm     80% 0.00 in WeatherDisplay:10.37 W/m2 CLR
00:45 65.6 °F 59.6 °F 29.70 in East 1.2 mph   81% 0.00 in WeatherDisplay:10.37 W/m2 CLR
00:50 65.6 °F 59.6 °F 29.70 in East 1.2 mph 1.2 mph 81% 0.00 in WeatherDisplay:10.37 W/m2 CLR
00:55 65.6 °F 59.6 °F 29.70 in East 3.5 mph 3.5 mph 81% 0.00 in WeatherDisplay:10.37 W/m2 CLR
01:05 65.5 °F 59.9 °F 29.69 in Calm     82% 0.00 in WeatherDisplay:10.37 W/m2 CLR
01:10 65.3 °F 59.7 °F 29.70 in East 2.3 mph 2.3 mph 82% 0.00 in WeatherDisplay:10.37 W/m2 CLR
01:15 65.2 °F 59.6 °F 29.70 in Calm     82% 0.00 in WeatherDisplay:10.37 W/m2 CLR
01:20 65.2 °F 59.9 °F 29.69 in East 1.2 mph   83% 0.00 in WeatherDisplay:10.37 W/m2 CLR
01:25 65.0 °F 59.7 °F 29.69 in Calm     83% 0.00 in WeatherDisplay:10.37 W/m2 CLR
01:30 64.7 °F 59.1 °F 29.70 in East 2.3 mph 2.3 mph 82% 0.00 in WeatherDisplay:10.37 W/m2 CLR
01:35 64.3 °F 59.0 °F 29.69 in Calm     83% 0.00 in WeatherDisplay:10.37 W/m2 CLR
01:40 64.2 °F 58.9 °F 29.69 in Calm     83% 0.00 in WeatherDisplay:10.37 W/m2 CLR
01:45 64.0 °F 58.7 °F 29.69 in Calm     83% 0.00 in WeatherDisplay:10.37 W/m2 CLR
01:50 63.9 °F 58.6 °F 29.69 in Calm     83% 0.00 in WeatherDisplay:10.37 W/m2 CLR
01:55 63.7 °F 58.8 °F 29.69 in Calm     84% 0.00 in WeatherDisplay:10.37 W/m2 CLR
02:01 63.5 °F 58.6 °F 29.68 in Calm     84% 0.00 in WeatherDisplay:10.37 W/m2 CLR
02:06 63.4 °F 58.5 °F 29.77 in Calm     84% 0.00 in WeatherDisplay:10.37 W/m2 CLR
02:11 63.2 °F 58.3 °F 29.76 in Calm     84% 0.00 in WeatherDisplay:10.37 W/m2 CLR
02:16 63.1 °F 58.5 °F 29.77 in East 1.2 mph 1.2 mph 85% 0.00 in WeatherDisplay:10.37 W/m2 CLR
02:21 62.9 °F 58.3 °F 29.77 in Calm     85% 0.00 in WeatherDisplay:10.37 W/m2 CLR
02:26 62.9 °F 58.3 °F 29.76 in Calm     85% 0.00 in WeatherDisplay:10.37 W/m2 CLR
02:31 62.9 °F 58.3 °F 29.76 in Calm     85% 0.00 in WeatherDisplay:10.37 W/m2 CLR
02:36 62.9 °F 58.6 °F 29.76 in Calm     86% 0.00 in WeatherDisplay:10.37 W/m2 CLR
02:41 62.7 °F 58.5 °F 29.76 in Calm     86% 0.00 in WeatherDisplay:10.37 W/m2 CLR
02:46 62.7 °F 58.5 °F 29.76 in Calm     86% 0.00 in WeatherDisplay:10.37 W/m2 CLR
02:51 62.7 °F 58.5 °F 29.75 in Calm     86% 0.00 in WeatherDisplay:10.37 W/m2 CLR
02:56 62.6 °F 58.4 °F 29.75 in Calm     86% 0.00 in WeatherDisplay:10.37 W/m2 CLR
03:01 62.4 °F 58.2 °F 29.76 in Calm     86% 0.00 in WeatherDisplay:10.37 W/m2 CLR
03:06 62.3 °F 58.1 °F 29.66 in Calm     86% 0.00 in WeatherDisplay:10.37 W/m2 CLR
03:11 62.1 °F 58.2 °F 29.66 in Calm     87% 0.00 in WeatherDisplay:10.37 W/m2 CLR
03:16 62.1 °F 58.2 °F 29.66 in Calm     87% 0.00 in WeatherDisplay:10.37 W/m2 CLR
03:21 62.0 °F 58.1 °F 29.66 in Calm     87% 0.00 in WeatherDisplay:10.37 W/m2 CLR
03:26 61.6 °F 57.7 °F 29.66 in Calm     87% 0.00 in WeatherDisplay:10.37 W/m2 CLR
03:31 61.5 °F 57.6 °F 29.66 in Calm     87% 0.00 in WeatherDisplay:10.37 W/m2 CLR
03:36 61.3 °F 57.4 °F 29.67 in Calm     87% 0.00 in WeatherDisplay:10.37 W/m2 CLR
03:41 61.2 °F 57.3 °F 29.66 in Calm     87% 0.00 in WeatherDisplay:10.37 W/m2 CLR
03:46 61.0 °F 57.1 °F 29.66 in Calm     87% 0.00 in WeatherDisplay:10.37 W/m2 CLR
03:51 61.0 °F 57.4 °F 29.66 in Calm     88% 0.00 in WeatherDisplay:10.37 W/m2 CLR
03:56 60.7 °F 56.8 °F 29.65 in Calm     87% 0.00 in WeatherDisplay:10.37 W/m2 CLR
04:01 60.5 °F 56.9 °F 29.65 in Calm     88% 0.00 in WeatherDisplay:10.37 W/m2 CLR
04:06 60.4 °F 56.8 °F 29.64 in Calm     88% 0.00 in WeatherDisplay:10.37 W/m2 CLR
04:11 60.5 °F 56.9 °F 29.64 in Calm     88% 0.00 in WeatherDisplay:10.37 W/m2 CLR
04:16 60.4 °F 56.8 °F 29.64 in Calm     88% 0.00 in WeatherDisplay:10.37 W/m2 CLR
04:21 60.4 °F 57.1 °F 29.64 in Calm     89% 0.00 in WeatherDisplay:10.37 W/m2 CLR
04:26 60.4 °F 57.1 °F 29.63 in Calm     89% 0.00 in WeatherDisplay:10.37 W/m2 CLR
04:31 60.2 °F 56.9 °F 29.63 in Calm     89% 0.00 in WeatherDisplay:10.37 W/m2 CLR
04:36 60.2 °F 56.9 °F 29.63 in Calm     89% 0.00 in WeatherDisplay:10.37 W/m2 CLR
04:41 60.1 °F 56.8 °F 29.63 in Calm     89% 0.00 in WeatherDisplay:10.37 W/m2 CLR
04:46 60.1 °F 56.8 °F 29.62 in Calm     89% 0.00 in WeatherDisplay:10.37 W/m2 CLR
04:51 60.1 °F 56.8 °F 29.62 in Calm     89% 0.00 in WeatherDisplay:10.37 W/m2 CLR
04:56 60.1 °F 56.8 °F 29.62 in Calm     89% 0.00 in WeatherDisplay:10.37 W/m2 CLR
05:01 59.9 °F 57.0 °F 29.62 in Calm     90% 0.00 in WeatherDisplay:10.37 W/m2 CLR
05:06 59.6 °F 56.7 °F 29.62 in Calm     90% 0.00 in WeatherDisplay:10.37 W/m2 CLR
05:11 59.6 °F 56.7 °F 29.62 in Calm     90% 0.00 in WeatherDisplay:10.37 W/m2 CLR
05:16 59.6 °F 56.7 °F 29.62 in Calm     90% 0.00 in WeatherDisplay:10.37 W/m2 CLR
05:21 59.6 °F 56.7 °F 29.62 in Calm     90% 0.00 in WeatherDisplay:10.37 W/m2 CLR
05:26 59.5 °F 56.6 °F 29.61 in Calm     90% 0.00 in WeatherDisplay:10.37 W/m2 CLR
05:31 59.6 °F 57.0 °F 29.61 in Calm     91% 0.00 in WeatherDisplay:10.37 W/m2 CLR
05:36 59.5 °F 56.6 °F 29.62 in Calm     90% 0.00 in WeatherDisplay:10.37 W/m2 CLR
05:41 59.2 °F 56.3 °F 29.63 in Calm     90% 0.00 in WeatherDisplay:10.37 W/m2 CLR
05:46 59.0 °F 56.1 °F 29.64 in Calm     90% 0.00 in WeatherDisplay:10.37 W/m2 CLR
05:51 59.0 °F 56.4 °F 29.63 in Calm     91% 0.00 in WeatherDisplay:10.37 W/m2 CLR
05:56 59.6 °F 57.3 °F 29.62 in Calm     92% 0.00 in WeatherDisplay:10.37 W/m2 CLR
06:01 60.2 °F 57.9 °F 29.67 in Calm     92% 0.00 in WeatherDisplay:10.37 W/m2 CLR
06:06 60.4 °F 57.8 °F 29.67 in Calm     91% 0.00 in WeatherDisplay:10.37 W/m2 CLR
06:11 60.4 °F 58.1 °F 29.67 in Calm     92% 0.00 in WeatherDisplay:10.37 W/m2 CLR
06:16 60.5 °F 58.2 °F 29.66 in Calm     92% 0.00 in WeatherDisplay:10.37 W/m2 CLR
06:21 60.5 °F 58.2 °F 29.66 in East 1.2 mph 1.2 mph 92% 0.00 in WeatherDisplay:10.37 W/m2 CLR
06:26 60.7 °F 58.4 °F 29.66 in Calm     92% 0.00 in WeatherDisplay:10.37 W/m2 CLR
06:31 60.9 °F 58.6 °F 29.67 in Calm     92% 0.00 in WeatherDisplay:10.37 W/m2 CLR
06:36 61.3 °F 59.0 °F 29.67 in East 2.3 mph 2.3 mph 92% 0.00 in WeatherDisplay:10.37 W/m2 CLR
06:41 61.5 °F 59.2 °F 29.67 in Calm     92% 0.00 in WeatherDisplay:10.37 W/m2 CLR
06:46 61.6 °F 59.3 °F 29.67 in East 2.0 mph 2.0 mph 92% 0.00 in WeatherDisplay:10.37 W/m2 CLR
06:51 62.0 °F 59.6 °F 29.66 in East 1.2 mph 1.2 mph 92% 0.00 in WeatherDisplay:10.37 W/m2 CLR
06:56 62.3 °F 59.9 °F 29.66 in Calm     92% 0.00 in WeatherDisplay:10.37 W/m2 CLR
07:01 62.4 °F 59.7 °F 29.68 in Calm     91% 0.00 in WeatherDisplay:10.37 W/m2 CLR
07:06 62.6 °F 59.9 °F 29.68 in East 3.5 mph 3.5 mph 91% 0.00 in WeatherDisplay:10.37 W/m2 CLR
07:11 62.7 °F 60.0 °F 29.68 in Calm     91% 0.00 in WeatherDisplay:10.37 W/m2 CLR
07:16 63.1 °F 60.4 °F 29.68 in Calm     91% 0.00 in WeatherDisplay:10.37 W/m2 CLR
07:22 63.4 °F 60.4 °F 29.67 in ENE 2.3 mph 2.3 mph 90% 0.00 in WeatherDisplay:10.37 W/m2 CLR
07:27 63.7 °F 60.7 °F 29.67 in ENE 3.5 mph 3.5 mph 90% 0.00 in WeatherDisplay:10.37 W/m2 CLR
07:32 63.7 °F 60.4 °F 29.67 in Calm     89% 0.00 in WeatherDisplay:10.37 W/m2 CLR
07:37 64.0 °F 60.7 °F 29.67 in ENE 2.3 mph 2.3 mph 89% 0.00 in WeatherDisplay:10.37 W/m2 CLR
07:42 64.7 °F 61.4 °F 29.67 in ENE 3.0 mph 3.0 mph 89% 0.00 in WeatherDisplay:10.37 W/m2 CLR
07:47 65.0 °F 61.4 °F 29.67 in ENE 3.0 mph 3.0 mph 88% 0.00 in WeatherDisplay:10.37 W/m2 CLR
07:52 65.2 °F 61.2 °F 29.67 in NE 3.5 mph 3.5 mph 87% 0.00 in WeatherDisplay:10.37 W/m2 CLR
07:57 65.6 °F 61.6 °F 29.66 in NE 3.5 mph 3.5 mph 87% 0.00 in WeatherDisplay:10.37 W/m2 CLR
08:02 66.1 °F 62.1 °F 29.68 in NE 3.5 mph 3.5 mph 87% 0.00 in WeatherDisplay:10.37 W/m2 CLR
08:07 66.4 °F 61.8 °F 29.68 in NNE 3.5 mph 3.5 mph 85% 0.00 in WeatherDisplay:10.37 W/m2 CLR
08:12 66.6 °F 61.9 °F 29.68 in North 3.5 mph 3.5 mph 85% 0.00 in WeatherDisplay:10.37 W/m2 CLR
08:17 66.9 °F 61.6 °F 29.68 in North 4.6 mph 4.6 mph 83% 0.00 in WeatherDisplay:10.37 W/m2 CLR
08:22 67.6 °F 62.6 °F 29.68 in NNW 4.6 mph 4.6 mph 84% 0.00 in WeatherDisplay:10.37 W/m2 CLR
08:27 68.1 °F 62.4 °F 29.67 in North 2.0 mph 2.0 mph 82% 0.00 in WeatherDisplay:10.37 W/m2 CLR
08:32 68.3 °F 61.9 °F 29.67 in NW 3.5 mph 3.5 mph 80% 0.00 in WeatherDisplay:10.37 W/m2 CLR
08:37 68.3 °F 61.9 °F 29.67 in NNW 3.5 mph 3.5 mph 80% 0.00 in WeatherDisplay:10.37 W/m2 CLR
08:42 68.4 °F 61.3 °F 29.67 in North 7.0 mph 7.0 mph 78% 0.00 in WeatherDisplay:10.37 W/m2 CLR
08:47 68.3 °F 61.2 °F 29.67 in North 8.1 mph 8.1 mph 78% 0.00 in WeatherDisplay:10.37 W/m2 CLR
08:52 68.3 °F 61.2 °F 29.67 in North 4.6 mph 4.6 mph 78% 0.00 in WeatherDisplay:10.37 W/m2 CLR
08:57 68.4 °F 61.6 °F 29.67 in Calm     79% 0.00 in WeatherDisplay:10.37 W/m2 CLR
Windsor Co Weather
Compliments of Weather Underground - 2 mb